Kimbro, Texas
Current Conditions -  °F | °C
As of 9:55 PM on Thursday 18 Dec 2014 (Local Time) from KEDC Reporting Station
Haze Haze  
Wind Chill: 50°   Ceiling: 400
Heat Index: 50°   Visibility: 2mi
Dew Point: 50°   Wind: 16mph
Humidity: 100%   Direction: 20°NNE
Pressure: 30.09"   Gusts: NA
Location:  30.352°N, 97.5205°W
Report Text: KEDC 190355Z AUTO 02014KT 2SM BR OVC004 10/10 A3009 RMK AO2
Loading
Personal Weather Stations






























Interactive Weather Map New forecast layout! Learn more

10-Day Weather Forecast

Advertisements
Track Severe Weather on mobile